Axtell Corner, MA

1:05 PM EDT on July 24, 2017 (GMT -0400)
| | Change Station

Elev -9999 ft 0.00 °N, 0.00 °E | Updated 0 second ago

Rain
Rain
°F
Feels Like °F
N
Wind Variable Wind from North
Gusts mph

Today
High -- | Low -- °F
--% Chance of Precip.
Yesterday
High -- | Low -- °F
Precip. -- in
Pressure 29.92 in
Visibility 2.5 miles
Clouds Mostly Cloudy 500 ft
Overcast 1000 ft
Dew Point Not available.
Humidity Not available.
Rainfall --
Snow Depth Not available.
5:31 AM 8:13 PM
New Moon, 2% visible
METAR KORH 241654Z 05009G16KT 2 1/2SM -RA BKN005 OVC010 12/11 A2992 RMK AO2 SFC VIS 8 CIG 003V006 SLP131 P0014 T01220111
Pressure 29.92 in
Visibility 2.5 miles
Clouds Mostly Cloudy 500 ft
Overcast 1000 ft
Dew Point Not available.
Humidity Not available.
Rainfall --
Snow Depth Not available.
5:31 AM 8:13 PM
New Moon, 2% visible
METAR KORH 241654Z 05009G16KT 2 1/2SM -RA BKN005 OVC010 12/11 A2992 RMK AO2 SFC VIS 8 CIG 003V006 SLP131 P0014 T01220111

Get Severe Weather Alerts

Thanks for signing up!

Be on the lookout for a verification email in your inbox.

You'll start receiving the daily forecast at 6 AM.

×

10-Day Weather Forecast

Almanac

Astronomy

Jul. 24, 2017 Rise Set
Actual Time
Civil Twilight
Nautical Twilight
Astronomical Twilight
Moon
Length of Visible Light
Length of Day
Tomorrow will be .
, % of the Moon is Illuminated

Today's Extremes

State Highs State Lows

Community

WunderPhotos

Category 6

Welcome to Category 6. This is the collective home for Weather Underground's featured writeups by Dr. Jeff Masters (right), Bob Henson (left), Chris Burt, and other regular contributors.

Nearby

Air Quality

  Air Quality AQ Index Pollutant
Not available.

Snow Depth

Station Depth Elevation

Earthquake Activity

City Distance Mag. Time & Date
Minimum magnitude displayed is 2.5.

Coastal Water Temperatures

Place Temperature

Stations

Nearby Weather Stations

Station Location Temp. Windchill Dew Point Humidity Wind Precip. Elev Updated Type
                   

Watches & Warnings

There are currently no watches in effect.